createdAt,value
2019-02-07T00:02:19.980Z,100973.78
2019-02-07T00:06:22.940Z,100971.67
2019-02-07T00:10:25.609Z,100976.20
2019-02-07T00:14:39.289Z,100973.38
2019-02-07T00:18:33.408Z,100970.22
2019-02-07T00:22:39.131Z,100958.41
2019-02-07T00:26:40.938Z,100954.47
2019-02-07T00:30:43.667Z,100943.97
2019-02-07T00:34:46.718Z,100927.56
2019-02-07T00:38:49.352Z,100919.15
2019-02-07T00:42:53.420Z,100916.12
2019-02-07T00:46:55.964Z,100909.12
2019-02-07T00:51:01.083Z,100903.89
2019-02-07T00:55:05.142Z,100894.31
2019-02-07T00:59:09.113Z,100892.14
2019-02-07T01:03:11.933Z,100880.47
2019-02-07T01:07:15.004Z,100868.28
2019-02-07T01:11:17.838Z,100867.80
2019-02-07T01:15:22.960Z,100862.66
2019-02-07T01:19:25.915Z,100851.38
2019-02-07T01:23:28.741Z,100847.05
2019-02-07T01:27:31.661Z,100846.61
2019-02-07T01:31:34.524Z,100845.41
2019-02-07T01:35:37.596Z,100837.49
2019-02-07T01:39:40.609Z,100828.80
2019-02-07T01:43:43.761Z,100823.19
2019-02-07T01:47:46.626Z,100828.86
2019-02-07T01:51:49.364Z,100817.52
2019-02-07T01:55:52.202Z,100811.79
2019-02-07T01:59:54.865Z,100809.09
2019-02-07T02:03:57.493Z,100800.75
2019-02-07T02:08:00.248Z,100801.11
2019-02-07T02:12:03.007Z,100781.07
2019-02-07T02:16:05.801Z,100780.59
2019-02-07T02:20:11.356Z,100762.70
2019-02-07T02:24:14.585Z,100754.86
2019-02-07T02:28:17.199Z,100748.72
2019-02-07T02:32:21.282Z,100740.81
2019-02-07T02:36:24.126Z,100730.27
2019-02-07T02:40:27.709Z,100725.84
2019-02-07T02:44:31.445Z,100718.01
2019-02-07T02:48:34.139Z,100697.94
2019-02-07T02:52:36.637Z,100690.03
2019-02-07T02:56:39.206Z,100681.30
2019-02-07T03:01:01.300Z,100672.58
2019-02-07T03:05:33.648Z,100654.28
2019-02-07T03:10:04.501Z,100645.08
2019-02-07T03:14:24.907Z,100638.51
2019-02-07T03:18:51.965Z,100622.83
2019-02-07T03:23:28.655Z,100614.99
2019-02-07T03:28:02.269Z,100609.28
2019-02-07T03:32:23.191Z,100598.80
2019-02-07T03:36:49.125Z,100590.45
2019-02-07T03:41:03.459Z,100586.05
2019-02-07T03:45:32.804Z,100571.19
2019-02-07T03:49:49.116Z,100565.93
2019-02-07T03:54:08.702Z,100554.06
2019-02-07T03:58:33.099Z,100540.48
2019-02-07T04:03:00.596Z,100536.87
2019-02-07T04:07:22.106Z,100520.29
2019-02-07T04:11:48.554Z,100505.84
2019-02-07T04:16:15.201Z,100499.27
2019-02-07T04:20:40.325Z,100484.83
2019-02-07T04:25:03.600Z,100475.64
2019-02-07T04:29:22.161Z,100462.95
2019-02-07T04:33:50.458Z,100456.82
2019-02-07T04:38:05.543Z,100440.62
2019-02-07T04:42:42.129Z,100443.68
2019-02-07T04:47:14.833Z,100434.49
2019-02-07T04:51:31.641Z,100419.14
2019-02-07T04:55:59.210Z,100409.95
2019-02-07T05:00:38.983Z,100395.91
2019-02-07T05:05:03.176Z,100392.31
2019-02-07T05:09:26.645Z,100385.66
2019-02-07T05:14:00.267Z,100381.22
2019-02-07T05:18:23.026Z,100366.67
2019-02-07T05:22:48.456Z,100353.53
2019-02-07T05:27:10.799Z,100352.05
2019-02-07T05:31:26.605Z,100336.64
2019-02-07T05:35:48.029Z,100314.67
2019-02-07T05:39:54.822Z,100309.72
2019-02-07T05:44:15.020Z,100304.81
2019-02-07T05:48:35.316Z,100287.23
2019-02-07T05:53:08.835Z,100279.18
2019-02-07T05:57:30.473Z,100261.14
2019-02-07T06:02:01.120Z,100263.95
2019-02-07T06:06:21.115Z,100257.10
2019-02-07T06:10:47.462Z,100261.95
2019-02-07T06:15:07.866Z,100262.27
2019-02-07T06:19:32.470Z,100259.92
2019-02-07T06:23:52.468Z,100254.09
2019-02-07T06:28:17.075Z,100234.11
2019-02-07T06:32:41.850Z,100218.72
2019-02-07T06:37:02.089Z,100221.02
2019-02-07T06:41:23.514Z,100224.72
2019-02-07T06:45:45.070Z,100212.30
2019-02-07T06:50:04.635Z,100209.91
2019-02-07T06:54:27.302Z,100207.95
2019-02-07T06:58:47.295Z,100214.13
2019-02-07T07:03:08.724Z,100205.13
2019-02-07T07:07:36.811Z,100212.03
2019-02-07T07:12:01.074Z,100203.17
2019-02-07T07:16:28.679Z,100200.41
2019-02-07T07:21:03.933Z,100201.12
2019-02-07T07:25:31.714Z,100199.03
2019-02-07T07:30:12.604Z,100195.92
2019-02-07T07:34:42.325Z,100194.01
2019-02-07T07:39:13.697Z,100198.56
2019-02-07T07:43:35.224Z,100188.72
2019-02-07T07:47:59.543Z,100178.09
2019-02-07T07:52:19.107Z,100169.98
2019-02-07T07:56:38.502Z,100160.66
2019-02-07T08:01:05.858Z,100175.48
2019-02-07T08:05:30.976Z,100181.27
2019-02-07T08:10:01.323Z,100186.52
2019-02-07T08:14:25.893Z,100176.19
2019-02-07T08:18:52.895Z,100167.56
2019-02-07T08:23:20.537Z,100170.23
2019-02-07T08:27:37.946Z,100168.56
2019-02-07T08:32:02.184Z,100173.41
2019-02-07T08:36:24.154Z,100168.40
2019-02-07T08:40:44.347Z,100163.59
2019-02-07T08:45:07.732Z,100155.25
2019-02-07T08:49:31.706Z,100151.16
2019-02-07T08:53:52.323Z,100154.78
2019-02-07T08:58:03.149Z,100146.19
2019-02-07T09:02:51.639Z,100141.23
2019-02-07T09:07:04.232Z,100143.63
2019-02-07T09:11:40.657Z,100138.08
2019-02-07T09:16:11.310Z,100142.25
2019-02-07T09:20:32.953Z,100148.66
2019-02-07T09:24:53.351Z,100148.03
2019-02-07T09:29:14.989Z,100137.65
2019-02-07T09:33:35.696Z,100147.44
2019-02-07T09:38:00.718Z,100147.59
2019-02-07T09:42:22.455Z,100150.75
2019-02-07T09:46:46.652Z,100151.36
2019-02-07T09:51:17.293Z,100151.56
2019-02-07T09:55:51.421Z,100145.37
2019-02-07T10:00:28.659Z,100146.13
2019-02-07T10:04:53.231Z,100151.32
2019-02-07T10:09:13.543Z,100155.39
2019-02-07T10:13:35.269Z,100154.30
2019-02-07T10:17:56.673Z,100150.55
2019-02-07T10:22:18.137Z,100144.07
2019-02-07T10:26:38.641Z,100145.28
2019-02-07T10:31:03.351Z,100149.62
2019-02-07T10:35:28.695Z,100154.81
2019-02-07T10:39:41.396Z,100146.43
2019-02-07T10:43:56.382Z,100150.03
2019-02-07T10:48:24.054Z,100141.68
2019-02-07T10:52:40.876Z,100129.67
2019-02-07T10:57:05.371Z,100138.70
2019-02-07T11:01:27.116Z,100142.41
2019-02-07T11:05:55.000Z,100149.16
2019-02-07T11:10:16.630Z,100150.36
2019-02-07T11:14:37.717Z,100145.95
2019-02-07T11:18:55.587Z,100144.41
2019-02-07T11:23:10.711Z,100160.47
2019-02-07T11:27:48.489Z,100162.64
2019-02-07T11:32:08.291Z,100169.84
2019-02-07T11:36:30.335Z,100168.98
2019-02-07T11:40:51.560Z,100171.23
2019-02-07T11:45:19.135Z,100168.70
2019-02-07T11:49:49.574Z,100176.13
2019-02-07T11:54:17.251Z,100175.91
2019-02-07T11:58:37.566Z,100175.52
2019-02-07T12:03:11.684Z,100186.66
2019-02-07T12:07:43.155Z,100189.79
2019-02-07T12:12:05.811Z,100183.00
2019-02-07T12:16:26.424Z,100182.82
2019-02-07T12:20:48.056Z,100183.67
2019-02-07T12:25:08.668Z,100187.23
2019-02-07T12:29:30.069Z,100183.22
2019-02-07T12:33:52.555Z,100183.11
2019-02-07T12:38:23.199Z,100186.66
2019-02-07T12:42:50.546Z,100187.23
2019-02-07T12:47:10.671Z,100192.09
2019-02-07T12:51:38.249Z,100190.25
2019-02-07T12:55:58.552Z,100195.22
2019-02-07T13:00:32.676Z,100194.36
2019-02-07T13:04:53.085Z,100205.41
2019-02-07T13:09:13.286Z,100200.32
2019-02-07T13:13:29.391Z,100191.68
2019-02-07T13:17:55.240Z,100195.06
2019-02-07T13:22:19.740Z,100200.98
2019-02-07T13:26:39.396Z,100200.98
2019-02-07T13:31:19.153Z,100195.95
2019-02-07T13:35:43.595Z,100206.47
2019-02-07T13:40:05.097Z,100217.84
2019-02-07T13:44:33.112Z,100231.05
2019-02-07T13:49:09.818Z,100239.20
2019-02-07T13:53:34.093Z,100241.89
2019-02-07T13:57:54.022Z,100243.38
2019-02-07T14:02:15.322Z,100251.36
2019-02-07T14:06:48.699Z,100257.63
2019-02-07T14:11:16.803Z,100261.17
2019-02-07T14:15:47.963Z,100266.03
2019-02-07T14:20:09.408Z,100269.45
2019-02-07T14:24:27.729Z,100266.43
2019-02-07T14:28:45.402Z,100277.04
2019-02-07T14:33:03.338Z,100281.51
2019-02-07T14:37:27.269Z,100271.55
2019-02-07T14:41:48.808Z,100280.35
2019-02-07T14:46:08.864Z,100289.19
2019-02-07T14:50:14.827Z,100293.12
2019-02-07T14:54:18.423Z,100299.30
2019-02-07T14:58:21.348Z,100300.22
2019-02-07T15:02:24.098Z,100303.77
2019-02-07T15:06:26.845Z,100304.72
2019-02-07T15:10:29.585Z,100316.14
2019-02-07T15:14:32.367Z,100315.84
2019-02-07T15:18:38.054Z,100323.72
2019-02-07T15:22:40.818Z,100323.27
2019-02-07T15:26:43.516Z,100330.13
2019-02-07T15:30:46.706Z,100329.73
2019-02-07T15:34:49.536Z,100332.30
2019-02-07T15:38:52.358Z,100335.39
2019-02-07T15:42:56.256Z,100329.73
2019-02-07T15:46:58.925Z,100330.69
2019-02-07T15:51:02.189Z,100335.39
2019-02-07T15:55:06.422Z,100330.59
2019-02-07T15:59:17.767Z,100336.70
2019-02-07T16:03:29.501Z,100339.39
2019-02-07T16:07:33.210Z,100335.09
2019-02-07T16:11:36.167Z,100334.69
2019-02-07T16:15:39.221Z,100337.32
2019-02-07T16:19:42.033Z,100341.66
2019-02-07T16:23:44.835Z,100341.66
2019-02-07T16:27:47.740Z,100343.48
2019-02-07T16:31:50.571Z,100335.15
2019-02-07T16:35:53.257Z,100336.92
2019-02-07T16:39:56.161Z,100336.86
2019-02-07T16:43:59.430Z,100335.09
2019-02-07T16:48:02.187Z,100338.23
2019-02-07T16:52:04.950Z,100341.26
2019-02-07T16:56:07.776Z,100336.47
2019-02-07T17:00:29.301Z,100340.34
2019-02-07T17:04:32.186Z,100340.04
2019-02-07T17:08:34.790Z,100336.77
2019-02-07T17:12:37.672Z,100340.34
2019-02-07T17:16:40.376Z,100339.94
2019-02-07T17:20:43.240Z,100338.08
2019-02-07T17:24:46.881Z,100339.48
2019-02-07T17:28:49.606Z,100337.41
2019-02-07T17:32:52.750Z,100345.66
2019-02-07T17:36:55.444Z,100342.27
2019-02-07T17:40:58.112Z,100337.93
2019-02-07T17:45:02.066Z,100349.91
2019-02-07T17:49:05.551Z,100334.77
2019-02-07T17:53:08.756Z,100342.19
2019-02-07T17:57:11.391Z,100338.70
2019-02-07T18:01:14.207Z,100339.66
2019-02-07T18:05:16.903Z,100342.34
2019-02-07T18:09:19.637Z,100340.56
2019-02-07T18:13:22.383Z,100334.46
2019-02-07T18:17:25.106Z,100330.61
2019-02-07T18:21:34.246Z,100332.94
2019-02-07T18:25:32.106Z,100337.80
2019-02-07T18:29:34.985Z,100335.02
2019-02-07T18:33:37.744Z,100338.86
2019-02-07T18:37:41.631Z,100340.17
2019-02-07T18:41:44.096Z,100346.28
2019-02-07T18:45:47.223Z,100331.47
2019-02-07T18:49:49.561Z,100343.75
2019-02-07T18:53:52.567Z,100339.66
2019-02-07T18:57:55.097Z,100339.34
2019-02-07T19:01:57.673Z,100340.51
2019-02-07T19:06:02.601Z,100345.82
2019-02-07T19:10:06.582Z,100354.95
2019-02-07T19:14:08.994Z,100361.58
2019-02-07T19:18:11.629Z,100365.06
2019-02-07T19:22:13.985Z,100358.95
2019-02-07T19:26:16.403Z,100363.30
2019-02-07T19:30:24.547Z,100359.41
2019-02-07T19:34:26.933Z,100357.95
2019-02-07T19:38:29.463Z,100362.28
2019-02-07T19:42:31.868Z,100368.00
2019-02-07T19:46:34.409Z,100374.50
2019-02-07T19:50:36.824Z,100370.92
2019-02-07T19:54:39.204Z,100369.61
2019-02-07T19:58:41.638Z,100375.33
2019-02-07T20:02:44.369Z,100376.18
2019-02-07T20:06:47.035Z,100383.91
2019-02-07T20:10:49.659Z,100375.56
2019-02-07T20:14:52.187Z,100377.28
2019-02-07T20:18:54.599Z,100374.56
2019-02-07T20:22:57.037Z,100381.83
2019-02-07T20:26:59.460Z,100378.44
2019-02-07T20:31:01.869Z,100380.21
2019-02-07T20:35:04.430Z,100383.84
2019-02-07T20:39:09.976Z,100375.17
2019-02-07T20:43:12.545Z,100379.51
2019-02-07T20:47:15.301Z,100383.45
2019-02-07T20:51:17.750Z,100387.48
2019-02-07T20:55:20.582Z,100378.75
2019-02-07T20:59:23.199Z,100380.83
2019-02-07T21:03:25.875Z,100375.56
2019-02-07T21:07:28.524Z,100371.56
2019-02-07T21:11:31.143Z,100365.45
2019-02-07T21:15:33.825Z,100370.31
2019-02-07T21:19:36.504Z,100374.71
2019-02-07T21:23:38.940Z,100378.13
2019-02-07T21:27:41.433Z,100373.19
2019-02-07T21:31:43.786Z,100371.02
2019-02-07T21:35:46.325Z,100371.41
2019-02-07T21:39:48.652Z,100375.72
2019-02-07T21:43:51.049Z,100366.00
2019-02-07T21:47:55.339Z,100372.57
2019-02-07T21:51:57.831Z,100369.78
2019-02-07T21:56:01.117Z,100363.28
2019-02-07T22:00:03.835Z,100353.47
2019-02-07T22:04:06.873Z,100351.14
2019-02-07T22:08:09.727Z,100350.38
2019-02-07T22:12:12.062Z,100353.61
2019-02-07T22:16:14.440Z,100346.19
2019-02-07T22:20:22.292Z,100342.34
2019-02-07T22:24:24.802Z,100331.13
2019-02-07T22:28:27.125Z,100327.95
2019-02-07T22:32:29.668Z,100318.84
2019-02-07T22:36:32.011Z,100320.16
2019-02-07T22:40:34.423Z,100319.30
2019-02-07T22:44:37.958Z,100307.58
2019-02-07T22:48:42.054Z,100303.14
2019-02-07T22:52:44.676Z,100300.06
2019-02-07T22:56:47.537Z,100302.46
2019-02-07T23:01:29.015Z,100292.41
2019-02-07T23:05:31.540Z,100285.45
2019-02-07T23:09:34.282Z,100285.84
2019-02-07T23:13:36.755Z,100281.80
2019-02-07T23:17:39.316Z,100270.83
2019-02-07T23:21:41.948Z,100256.84
2019-02-07T23:25:45.510Z,100255.45
2019-02-07T23:29:47.913Z,100250.27
2019-02-07T23:33:50.360Z,100242.55
2019-02-07T23:37:52.773Z,100253.06
2019-02-07T23:41:55.115Z,100245.17
2019-02-07T23:45:57.594Z,100239.09
2019-02-07T23:50:00.136Z,100237.39
2019-02-07T23:54:02.552Z,100230.73
2019-02-07T23:58:05.194Z,100225.86
